Neeses, SC (29107)

4:17 AM EDT on July 31, 2015 (GMT -0400)
Foreback Place, North, SC | | Change Station
CLOSE
Current Station
Personal Weather Station
Location: North, SC
Elevation: 285 ft
Nearby Weather Stations

Elev 285 ft 33.64 °N, 81.15 °W | Updated 50 seconds ago

Partly Cloudy
Partly Cloudy
74.8 °F
Feels Like 72 °F
N
0.0
Wind Variable Wind from NW
Gusts 0.0 mph

Today
High -- | Low -- °F
--% Chance of Precip.
Yesterday
High -- | Low -- °F
Precip. -- in
6:35 AM 8:25 PM
Full, 100% visible
Pressure 29.88 in
Visibility 8.0 miles
Clouds Clear
Heat Index 72 °F
Dew Point 75 °F
Humidity 99%
Rainfall 0.00 in
Snow Depth Not available.
UV 0.0 out of 12
Pollen 4.40 out of 12
Air Quality Not available.
Flu Activity Not available.
METAR KOGB 310753Z AUTO 00000KT 8SM CLR 24/23 A2989 RMK AO2 SLP117 T02440228

More Conditions Fewer Conditions

Pressure 29.88 in
Visibility 8.0 miles
Clouds Clear
Heat Index 72 °F
Dew Point 75 °F
Humidity 99%
Rainfall 0.00 in
Snow Depth Not available.
UV 0.0 out of 12
Pollen 4.40 out of 12
Air Quality Not available.
Flu Activity Not available.
METAR KOGB 310753Z AUTO 00000KT 8SM CLR 24/23 A2989 RMK AO2 SLP117 T02440228

More Conditions Fewer Conditions

10-Day Weather Forecast

×

Almanac

Astronomy

Jul. 31, 2015 Rise Set
Actual Time
Civil Twilight
Nautical Twilight
Astronomical Twilight
Moon
Length of Visible Light
Length of Day
Tomorrow will be .
, % of the Moon is Illuminated

Today's Extremes

State Highs State Lows

Community

WunderPhotos

Upload Photos

1,842,633 photos uploaded!

WunderBlogs® & News

Nearby

Air Quality

  Air Quality AQ Index Pollutant
Not available.

Snow Depth

Station Depth Elevation

Earthquake Activity

City Distance Mag. Time & Date
Minimum magnitude displayed is 2.5.

Coastal Water Temperatures

Place Temperature

Stations

Nearby Weather Stations

Station Location Temp. Windchill Dew Point Humidity Wind Precip. Elev Updated Type